sensor_id;sensor_type;location;lat;lon;timestamp;pressure;altitude;pressure_sealevel;temperature
47484;BMP280;54076;50.322;18.650;2022-12-07T00:00:40;98645.97;;;3.09
47484;BMP280;54076;50.322;18.650;2022-12-07T00:05:41;98649.39;;;3.11
47484;BMP280;54076;50.322;18.650;2022-12-07T00:10:42;98650.41;;;3.12
47484;BMP280;54076;50.322;18.650;2022-12-07T00:15:44;98646.54;;;3.06
47484;BMP280;54076;50.322;18.650;2022-12-07T00:20:45;98640.11;;;3.12
47484;BMP280;54076;50.322;18.650;2022-12-07T00:25:46;98636.55;;;3.04
47484;BMP280;54076;50.322;18.650;2022-12-07T00:30:49;98634.80;;;3.11
47484;BMP280;54076;50.322;18.650;2022-12-07T00:35:56;98637.05;;;3.11
47484;BMP280;54076;50.322;18.650;2022-12-07T00:41:06;98630.67;;;3.16
47484;BMP280;54076;50.322;18.650;2022-12-07T00:46:08;98627.66;;;3.12
47484;BMP280;54076;50.322;18.650;2022-12-07T00:51:12;98622.36;;;3.11
47484;BMP280;54076;50.322;18.650;2022-12-07T00:56:28;98619.67;;;3.11
47484;BMP280;54076;50.322;18.650;2022-12-07T01:01:33;98613.55;;;3.19
47484;BMP280;54076;50.322;18.650;2022-12-07T01:06:34;98615.23;;;3.22
47484;BMP280;54076;50.322;18.650;2022-12-07T01:11:35;98610.77;;;3.21
47484;BMP280;54076;50.322;18.650;2022-12-07T01:16:38;98602.36;;;3.18
47484;BMP280;54076;50.322;18.650;2022-12-07T01:21:39;98604.52;;;3.28
47484;BMP280;54076;50.322;18.650;2022-12-07T01:26:40;98602.64;;;3.27
47484;BMP280;54076;50.322;18.650;2022-12-07T01:31:41;98596.70;;;3.33
47484;BMP280;54076;50.322;18.650;2022-12-07T01:36:42;98593.23;;;3.48
47484;BMP280;54076;50.322;18.650;2022-12-07T01:41:43;98597.34;;;3.48
47484;BMP280;54076;50.322;18.650;2022-12-07T01:46:50;98602.70;;;3.66
47484;BMP280;54076;50.322;18.650;2022-12-07T01:52:09;98602.05;;;3.54
47484;BMP280;54076;50.322;18.650;2022-12-07T01:57:12;98596.48;;;3.37
47484;BMP280;54076;50.322;18.650;2022-12-07T02:02:28;98592.75;;;3.35
47484;BMP280;54076;50.322;18.650;2022-12-07T02:07:35;98597.26;;;3.31
47484;BMP280;54076;50.322;18.650;2022-12-07T02:12:37;98598.00;;;3.40
47484;BMP280;54076;50.322;18.650;2022-12-07T02:18:06;98594.41;;;3.50
47484;BMP280;54076;50.322;18.650;2022-12-07T02:34:12;98593.23;;;3.41
47484;BMP280;54076;50.322;18.650;2022-12-07T02:39:23;98596.38;;;3.26
47484;BMP280;54076;50.322;18.650;2022-12-07T02:44:27;98587.27;;;3.45
47484;BMP280;54076;50.322;18.650;2022-12-07T02:49:30;98580.34;;;3.21
47484;BMP280;54076;50.322;18.650;2022-12-07T02:54:31;98575.16;;;3.35
47484;BMP280;54076;50.322;18.650;2022-12-07T03:00:03;98575.01;;;3.23
47484;BMP280;54076;50.322;18.650;2022-12-07T03:11:10;98579.05;;;3.30
47484;BMP280;54076;50.322;18.650;2022-12-07T03:16:23;98575.95;;;3.25
47484;BMP280;54076;50.322;18.650;2022-12-07T03:21:37;98574.61;;;3.32
47484;BMP280;54076;50.322;18.650;2022-12-07T03:26:49;98567.13;;;3.30
47484;BMP280;54076;50.322;18.650;2022-12-07T03:32:00;98567.33;;;3.36
47484;BMP280;54076;50.322;18.650;2022-12-07T03:37:15;98567.05;;;3.46
47484;BMP280;54076;50.322;18.650;2022-12-07T03:42:18;98566.92;;;3.35
47484;BMP280;54076;50.322;18.650;2022-12-07T03:47:46;98562.09;;;3.33
47484;BMP280;54076;50.322;18.650;2022-12-07T03:53:04;98560.77;;;3.17
47484;BMP280;54076;50.322;18.650;2022-12-07T03:58:14;98563.54;;;3.17
47484;BMP280;54076;50.322;18.650;2022-12-07T04:03:16;98563.89;;;3.28
47484;BMP280;54076;50.322;18.650;2022-12-07T04:08:17;98564.44;;;3.11
47484;BMP280;54076;50.322;18.650;2022-12-07T04:13:18;98559.77;;;3.15
47484;BMP280;54076;50.322;18.650;2022-12-07T04:18:19;98558.66;;;3.10
47484;BMP280;54076;50.322;18.650;2022-12-07T04:23:20;98557.54;;;2.98
47484;BMP280;54076;50.322;18.650;2022-12-07T04:28:21;98557.26;;;3.20
47484;BMP280;54076;50.322;18.650;2022-12-07T04:33:22;98556.42;;;3.17
47484;BMP280;54076;50.322;18.650;2022-12-07T04:38:23;98560.70;;;3.16
47484;BMP280;54076;50.322;18.650;2022-12-07T04:43:24;98561.70;;;2.97
47484;BMP280;54076;50.322;18.650;2022-12-07T04:48:25;98554.39;;;3.00
47484;BMP280;54076;50.322;18.650;2022-12-07T04:53:26;98552.65;;;3.03
47484;BMP280;54076;50.322;18.650;2022-12-07T04:58:27;98557.48;;;2.99
47484;BMP280;54076;50.322;18.650;2022-12-07T05:03:28;98552.48;;;3.09
47484;BMP280;54076;50.322;18.650;2022-12-07T05:08:29;98555.35;;;2.90
47484;BMP280;54076;50.322;18.650;2022-12-07T05:13:32;98558.91;;;3.07
47484;BMP280;54076;50.322;18.650;2022-12-07T05:18:33;98567.45;;;2.97
47484;BMP280;54076;50.322;18.650;2022-12-07T05:23:34;98568.46;;;3.02
47484;BMP280;54076;50.322;18.650;2022-12-07T05:28:35;98570.01;;;2.86
47484;BMP280;54076;50.322;18.650;2022-12-07T05:33:36;98570.48;;;2.82
47484;BMP280;54076;50.322;18.650;2022-12-07T05:38:37;98569.68;;;2.93
47484;BMP280;54076;50.322;18.650;2022-12-07T05:43:38;98566.83;;;2.85
47484;BMP280;54076;50.322;18.650;2022-12-07T05:48:39;98571.75;;;2.89
47484;BMP280;54076;50.322;18.650;2022-12-07T05:53:40;98570.16;;;2.79
47484;BMP280;54076;50.322;18.650;2022-12-07T05:58:41;98567.39;;;2.77
47484;BMP280;54076;50.322;18.650;2022-12-07T06:04:01;98572.51;;;2.76
47484;BMP280;54076;50.322;18.650;2022-12-07T06:09:03;98571.83;;;2.75
47484;BMP280;54076;50.322;18.650;2022-12-07T06:14:04;98573.52;;;2.93
47484;BMP280;54076;50.322;18.650;2022-12-07T06:19:05;98576.69;;;2.90
47484;BMP280;54076;50.322;18.650;2022-12-07T06:24:06;98583.09;;;2.93
47484;BMP280;54076;50.322;18.650;2022-12-07T06:29:08;98586.39;;;2.79
47484;BMP280;54076;50.322;18.650;2022-12-07T06:34:13;98587.95;;;2.81
47484;BMP280;54076;50.322;18.650;2022-12-07T06:39:15;98590.29;;;2.85
47484;BMP280;54076;50.322;18.650;2022-12-07T06:44:15;98592.17;;;2.94
47484;BMP280;54076;50.322;18.650;2022-12-07T06:49:17;98592.17;;;3.01
47484;BMP280;54076;50.322;18.650;2022-12-07T06:54:18;98592.28;;;2.93
47484;BMP280;54076;50.322;18.650;2022-12-07T06:59:19;98600.17;;;2.97
47484;BMP280;54076;50.322;18.650;2022-12-07T07:04:20;98596.67;;;3.10
47484;BMP280;54076;50.322;18.650;2022-12-07T07:09:21;98599.46;;;3.08
47484;BMP280;54076;50.322;18.650;2022-12-07T07:14:22;98602.42;;;3.14
47484;BMP280;54076;50.322;18.650;2022-12-07T07:19:23;98603.58;;;3.09
47484;BMP280;54076;50.322;18.650;2022-12-07T07:24:24;98603.99;;;3.40
47484;BMP280;54076;50.322;18.650;2022-12-07T07:29:25;98596.41;;;4.16
47484;BMP280;54076;50.322;18.650;2022-12-07T07:34:26;98598.42;;;3.94
47484;BMP280;54076;50.322;18.650;2022-12-07T07:39:27;98598.80;;;3.72
47484;BMP280;54076;50.322;18.650;2022-12-07T07:44:28;98595.02;;;3.43
47484;BMP280;54076;50.322;18.650;2022-12-07T07:49:29;98593.42;;;3.39
47484;BMP280;54076;50.322;18.650;2022-12-07T07:54:30;98591.94;;;3.44
47484;BMP280;54076;50.322;18.650;2022-12-07T07:59:31;98600.56;;;3.41
47484;BMP280;54076;50.322;18.650;2022-12-07T08:04:32;98604.48;;;3.66
47484;BMP280;54076;50.322;18.650;2022-12-07T08:09:33;98602.55;;;3.56
47484;BMP280;54076;50.322;18.650;2022-12-07T08:14:34;98609.42;;;3.64
47484;BMP280;54076;50.322;18.650;2022-12-07T08:19:35;98615.77;;;3.63
47484;BMP280;54076;50.322;18.650;2022-12-07T08:24:36;98619.73;;;3.62
47484;BMP280;54076;50.322;18.650;2022-12-07T08:29:37;98630.76;;;3.67
47484;BMP280;54076;50.322;18.650;2022-12-07T08:34:38;98640.19;;;3.48
47484;BMP280;54076;50.322;18.650;2022-12-07T08:39:39;98634.39;;;3.48
47484;BMP280;54076;50.322;18.650;2022-12-07T08:44:40;98639.45;;;3.56
47484;BMP280;54076;50.322;18.650;2022-12-07T08:49:45;98641.92;;;3.63
47484;BMP280;54076;50.322;18.650;2022-12-07T08:54:48;98638.16;;;3.68
47484;BMP280;54076;50.322;18.650;2022-12-07T08:59:49;98632.39;;;3.74
47484;BMP280;54076;50.322;18.650;2022-12-07T09:04:50;98633.17;;;3.77
47484;BMP280;54076;50.322;18.650;2022-12-07T09:09:51;98623.91;;;3.76
47484;BMP280;54076;50.322;18.650;2022-12-07T09:14:52;98622.23;;;3.88
47484;BMP280;54076;50.322;18.650;2022-12-07T09:19:53;98617.73;;;3.89
47484;BMP280;54076;50.322;18.650;2022-12-07T09:24:54;98607.05;;;3.88
47484;BMP280;54076;50.322;18.650;2022-12-07T09:29:55;98599.36;;;4.04
47484;BMP280;54076;50.322;18.650;2022-12-07T09:34:56;98594.91;;;4.03
47484;BMP280;54076;50.322;18.650;2022-12-07T09:39:57;98589.92;;;4.21
47484;BMP280;54076;50.322;18.650;2022-12-07T09:44:59;98585.95;;;4.13
47484;BMP280;54076;50.322;18.650;2022-12-07T09:50:39;98578.44;;;3.99
47484;BMP280;54076;50.322;18.650;2022-12-07T09:55:33;98572.45;;;3.96
47484;BMP280;54076;50.322;18.650;2022-12-07T10:00:36;98566.12;;;3.98
47484;BMP280;54076;50.322;18.650;2022-12-07T10:05:45;98565.50;;;4.04
47484;BMP280;54076;50.322;18.650;2022-12-07T10:10:52;98556.51;;;4.12
47484;BMP280;54076;50.322;18.650;2022-12-07T10:15:56;98549.99;;;4.11
47484;BMP280;54076;50.322;18.650;2022-12-07T10:21:14;98533.91;;;4.25
47484;BMP280;54076;50.322;18.650;2022-12-07T10:26:40;98526.05;;;4.17
47484;BMP280;54076;50.322;18.650;2022-12-07T10:31:43;98525.45;;;4.10
47484;BMP280;54076;50.322;18.650;2022-12-07T10:36:44;98529.71;;;4.00
47484;BMP280;54076;50.322;18.650;2022-12-07T10:42:01;98529.58;;;4.02
47484;BMP280;54076;50.322;18.650;2022-12-07T10:47:25;98519.67;;;3.99
47484;BMP280;54076;50.322;18.650;2022-12-07T10:52:58;98520.53;;;4.07
47484;BMP280;54076;50.322;18.650;2022-12-07T11:09:45;98512.54;;;4.31
47484;BMP280;54076;50.322;18.650;2022-12-07T11:25:33;98502.91;;;4.64
47484;BMP280;54076;50.322;18.650;2022-12-07T11:36:41;98498.89;;;6.60
47484;BMP280;54076;50.322;18.650;2022-12-07T11:41:47;98486.69;;;8.21
47484;BMP280;54076;50.322;18.650;2022-12-07T11:47:02;98489.94;;;9.11
47484;BMP280;54076;50.322;18.650;2022-12-07T11:52:17;98472.85;;;9.39
47484;BMP280;54076;50.322;18.650;2022-12-07T11:57:44;98462.61;;;9.18
47484;BMP280;54076;50.322;18.650;2022-12-07T12:03:10;98471.19;;;8.52
47484;BMP280;54076;50.322;18.650;2022-12-07T12:08:38;98460.23;;;7.36
47484;BMP280;54076;50.322;18.650;2022-12-07T12:13:51;98463.77;;;6.81
47484;BMP280;54076;50.322;18.650;2022-12-07T12:24:33;98458.10;;;6.04
47484;BMP280;54076;50.322;18.650;2022-12-07T12:29:40;98446.29;;;5.72
47484;BMP280;54076;50.322;18.650;2022-12-07T12:50:35;98428.73;;;5.40
47484;BMP280;54076;50.322;18.650;2022-12-07T13:00:49;98431.94;;;5.32
47484;BMP280;54076;50.322;18.650;2022-12-07T13:06:39;98427.20;;;5.24
47484;BMP280;54076;50.322;18.650;2022-12-07T13:11:44;98435.48;;;5.27
47484;BMP280;54076;50.322;18.650;2022-12-07T13:16:46;98437.77;;;5.28
47484;BMP280;54076;50.322;18.650;2022-12-07T13:21:47;98441.34;;;5.22
47484;BMP280;54076;50.322;18.650;2022-12-07T13:26:48;98445.44;;;5.39
47484;BMP280;54076;50.322;18.650;2022-12-07T13:31:53;98446.90;;;5.27
47484;BMP280;54076;50.322;18.650;2022-12-07T13:36:57;98449.42;;;5.28
47484;BMP280;54076;50.322;18.650;2022-12-07T13:41:59;98450.44;;;5.31
47484;BMP280;54076;50.322;18.650;2022-12-07T13:47:14;98453.17;;;5.39
47484;BMP280;54076;50.322;18.650;2022-12-07T13:52:29;98460.27;;;5.20
47484;BMP280;54076;50.322;18.650;2022-12-07T13:57:33;98467.95;;;5.27
47484;BMP280;54076;50.322;18.650;2022-12-07T14:02:35;98463.50;;;5.27
47484;BMP280;54076;50.322;18.650;2022-12-07T14:08:02;98475.97;;;4.91
47484;BMP280;54076;50.322;18.650;2022-12-07T14:18:40;98492.32;;;4.87
47484;BMP280;54076;50.322;18.650;2022-12-07T14:33:40;98502.05;;;4.84
47484;BMP280;54076;50.322;18.650;2022-12-07T14:38:41;98497.44;;;4.90
47484;BMP280;54076;50.322;18.650;2022-12-07T14:43:42;98499.26;;;4.68
47484;BMP280;54076;50.322;18.650;2022-12-07T14:48:43;98508.80;;;4.75
47484;BMP280;54076;50.322;18.650;2022-12-07T14:53:48;98504.34;;;4.65
47484;BMP280;54076;50.322;18.650;2022-12-07T14:58:51;98509.13;;;4.59
47484;BMP280;54076;50.322;18.650;2022-12-07T15:03:52;98515.81;;;4.65
47484;BMP280;54076;50.322;18.650;2022-12-07T15:08:53;98514.21;;;4.64
47484;BMP280;54076;50.322;18.650;2022-12-07T15:13:55;98517.00;;;4.70
47484;BMP280;54076;50.322;18.650;2022-12-07T15:19:15;98510.88;;;4.64
47484;BMP280;54076;50.322;18.650;2022-12-07T15:24:17;98508.71;;;4.47
47484;BMP280;54076;50.322;18.650;2022-12-07T15:29:18;98504.51;;;4.55
47484;BMP280;54076;50.322;18.650;2022-12-07T15:34:19;98506.94;;;4.41
47484;BMP280;54076;50.322;18.650;2022-12-07T15:39:20;98509.43;;;4.36
47484;BMP280;54076;50.322;18.650;2022-12-07T15:44:22;98513.83;;;4.34
47484;BMP280;54076;50.322;18.650;2022-12-07T15:49:42;98517.15;;;4.24
47484;BMP280;54076;50.322;18.650;2022-12-07T15:54:43;98513.84;;;4.20
47484;BMP280;54076;50.322;18.650;2022-12-07T15:59:44;98515.90;;;4.22
47484;BMP280;54076;50.322;18.650;2022-12-07T16:04:45;98517.84;;;4.20
47484;BMP280;54076;50.322;18.650;2022-12-07T16:09:47;98516.95;;;4.14
47484;BMP280;54076;50.322;18.650;2022-12-07T16:14:51;98522.09;;;4.07
47484;BMP280;54076;50.322;18.650;2022-12-07T16:19:52;98517.20;;;4.08
47484;BMP280;54076;50.322;18.650;2022-12-07T16:24:54;98507.83;;;4.03
47484;BMP280;54076;50.322;18.650;2022-12-07T16:29:55;98514.95;;;3.86
47484;BMP280;54076;50.322;18.650;2022-12-07T16:34:56;98518.19;;;3.99
47484;BMP280;54076;50.322;18.650;2022-12-07T16:39:57;98522.57;;;3.88
47484;BMP280;54076;50.322;18.650;2022-12-07T16:44:58;98519.30;;;3.90
47484;BMP280;54076;50.322;18.650;2022-12-07T16:49:59;98518.06;;;3.91
47484;BMP280;54076;50.322;18.650;2022-12-07T16:55:00;98518.52;;;3.86
47484;BMP280;54076;50.322;18.650;2022-12-07T17:00:03;98518.61;;;3.90
47484;BMP280;54076;50.322;18.650;2022-12-07T17:05:05;98527.08;;;3.87
47484;BMP280;54076;50.322;18.650;2022-12-07T17:10:06;98527.08;;;3.78
47484;BMP280;54076;50.322;18.650;2022-12-07T17:15:09;98523.58;;;3.80
47484;BMP280;54076;50.322;18.650;2022-12-07T17:20:26;98522.13;;;3.80
47484;BMP280;54076;50.322;18.650;2022-12-07T17:25:27;98513.23;;;3.84
47484;BMP280;54076;50.322;18.650;2022-12-07T17:30:28;98507.38;;;3.95
47484;BMP280;54076;50.322;18.650;2022-12-07T17:35:29;98508.07;;;3.88
47484;BMP280;54076;50.322;18.650;2022-12-07T17:40:30;98501.31;;;3.81
47484;BMP280;54076;50.322;18.650;2022-12-07T17:45:31;98499.89;;;3.89
47484;BMP280;54076;50.322;18.650;2022-12-07T17:50:32;98520.43;;;3.89
47484;BMP280;54076;50.322;18.650;2022-12-07T17:55:53;98515.61;;;4.01
47484;BMP280;54076;50.322;18.650;2022-12-07T18:00:54;98521.77;;;4.02
47484;BMP280;54076;50.322;18.650;2022-12-07T18:05:55;98522.00;;;3.96
47484;BMP280;54076;50.322;18.650;2022-12-07T18:10:59;98518.09;;;3.99
47484;BMP280;54076;50.322;18.650;2022-12-07T18:16:03;98517.53;;;3.82
47484;BMP280;54076;50.322;18.650;2022-12-07T18:21:15;98516.33;;;3.83
47484;BMP280;54076;50.322;18.650;2022-12-07T18:26:17;98513.83;;;3.76
47484;BMP280;54076;50.322;18.650;2022-12-07T18:31:18;98519.68;;;3.70
47484;BMP280;54076;50.322;18.650;2022-12-07T18:36:21;98523.30;;;3.71
47484;BMP280;54076;50.322;18.650;2022-12-07T18:41:22;98521.73;;;3.78
47484;BMP280;54076;50.322;18.650;2022-12-07T18:46:23;98522.52;;;3.77
47484;BMP280;54076;50.322;18.650;2022-12-07T18:51:25;98521.77;;;3.80
47484;BMP280;54076;50.322;18.650;2022-12-07T18:56:28;98522.59;;;3.84
47484;BMP280;54076;50.322;18.650;2022-12-07T19:01:30;98523.71;;;3.64
47484;BMP280;54076;50.322;18.650;2022-12-07T19:06:31;98521.50;;;3.70
47484;BMP280;54076;50.322;18.650;2022-12-07T19:11:33;98531.73;;;3.72
47484;BMP280;54076;50.322;18.650;2022-12-07T19:16:53;98527.95;;;3.69
47484;BMP280;54076;50.322;18.650;2022-12-07T19:21:54;98534.34;;;3.75
47484;BMP280;54076;50.322;18.650;2022-12-07T19:26:56;98532.60;;;3.69
47484;BMP280;54076;50.322;18.650;2022-12-07T19:31:59;98545.00;;;3.68
47484;BMP280;54076;50.322;18.650;2022-12-07T19:37:01;98544.78;;;3.69
47484;BMP280;54076;50.322;18.650;2022-12-07T19:42:02;98558.97;;;3.64
47484;BMP280;54076;50.322;18.650;2022-12-07T19:47:04;98559.23;;;3.43
47484;BMP280;54076;50.322;18.650;2022-12-07T19:52:06;98570.56;;;3.06
47484;BMP280;54076;50.322;18.650;2022-12-07T19:57:08;98572.52;;;2.85
47484;BMP280;54076;50.322;18.650;2022-12-07T20:02:15;98574.45;;;2.92
47484;BMP280;54076;50.322;18.650;2022-12-07T20:07:16;98578.39;;;2.98
47484;BMP280;54076;50.322;18.650;2022-12-07T20:12:17;98576.45;;;3.07
47484;BMP280;54076;50.322;18.650;2022-12-07T20:17:37;98581.54;;;3.10
47484;BMP280;54076;50.322;18.650;2022-12-07T20:22:38;98578.83;;;3.02
47484;BMP280;54076;50.322;18.650;2022-12-07T20:27:39;98577.73;;;2.98
47484;BMP280;54076;50.322;18.650;2022-12-07T20:32:40;98581.67;;;2.98
47484;BMP280;54076;50.322;18.650;2022-12-07T20:37:41;98585.80;;;3.09
47484;BMP280;54076;50.322;18.650;2022-12-07T20:42:42;98584.52;;;3.08
47484;BMP280;54076;50.322;18.650;2022-12-07T20:47:43;98586.39;;;3.19
47484;BMP280;54076;50.322;18.650;2022-12-07T20:52:44;98584.13;;;3.33
47484;BMP280;54076;50.322;18.650;2022-12-07T20:57:45;98580.90;;;3.30
47484;BMP280;54076;50.322;18.650;2022-12-07T21:02:46;98573.38;;;3.34
47484;BMP280;54076;50.322;18.650;2022-12-07T21:07:47;98571.13;;;3.44
47484;BMP280;54076;50.322;18.650;2022-12-07T21:12:48;98562.17;;;3.48
47484;BMP280;54076;50.322;18.650;2022-12-07T21:17:49;98564.33;;;3.39
47484;BMP280;54076;50.322;18.650;2022-12-07T21:22:50;98560.59;;;3.38
47484;BMP280;54076;50.322;18.650;2022-12-07T21:27:51;98553.47;;;3.25
47484;BMP280;54076;50.322;18.650;2022-12-07T21:32:52;98559.51;;;3.11
47484;BMP280;54076;50.322;18.650;2022-12-07T21:37:53;98565.06;;;3.11
47484;BMP280;54076;50.322;18.650;2022-12-07T21:42:54;98566.23;;;3.15
47484;BMP280;54076;50.322;18.650;2022-12-07T21:47:55;98573.86;;;3.14
47484;BMP280;54076;50.322;18.650;2022-12-07T21:52:57;98567.67;;;3.25
47484;BMP280;54076;50.322;18.650;2022-12-07T21:57:58;98567.98;;;3.17
47484;BMP280;54076;50.322;18.650;2022-12-07T22:03:00;98568.40;;;3.21
47484;BMP280;54076;50.322;18.650;2022-12-07T22:08:03;98566.54;;;3.22
47484;BMP280;54076;50.322;18.650;2022-12-07T22:13:04;98563.33;;;3.19
47484;BMP280;54076;50.322;18.650;2022-12-07T22:18:05;98566.31;;;3.31
47484;BMP280;54076;50.322;18.650;2022-12-07T22:23:06;98574.05;;;3.21
47484;BMP280;54076;50.322;18.650;2022-12-07T22:28:07;98570.95;;;3.22
47484;BMP280;54076;50.322;18.650;2022-12-07T22:33:08;98572.64;;;3.24
47484;BMP280;54076;50.322;18.650;2022-12-07T22:38:09;98576.02;;;3.22
47484;BMP280;54076;50.322;18.650;2022-12-07T22:43:10;98578.07;;;3.20
47484;BMP280;54076;50.322;18.650;2022-12-07T22:48:11;98580.24;;;3.21
47484;BMP280;54076;50.322;18.650;2022-12-07T22:53:12;98575.55;;;3.17
47484;BMP280;54076;50.322;18.650;2022-12-07T22:58:13;98576.27;;;3.25
47484;BMP280;54076;50.322;18.650;2022-12-07T23:03:14;98574.20;;;3.23
47484;BMP280;54076;50.322;18.650;2022-12-07T23:08:15;98572.77;;;3.25
47484;BMP280;54076;50.322;18.650;2022-12-07T23:13:17;98575.48;;;3.33
47484;BMP280;54076;50.322;18.650;2022-12-07T23:18:36;98569.73;;;3.32
47484;BMP280;54076;50.322;18.650;2022-12-07T23:23:37;98564.29;;;3.47
47484;BMP280;54076;50.322;18.650;2022-12-07T23:28:39;98564.58;;;3.43
47484;BMP280;54076;50.322;18.650;2022-12-07T23:33:41;98565.30;;;3.47
47484;BMP280;54076;50.322;18.650;2022-12-07T23:38:44;98562.92;;;3.40
47484;BMP280;54076;50.322;18.650;2022-12-07T23:43:47;98559.35;;;3.32
47484;BMP280;54076;50.322;18.650;2022-12-07T23:48:51;98555.23;;;3.25
47484;BMP280;54076;50.322;18.650;2022-12-07T23:53:53;98557.01;;;3.19
47484;BMP280;54076;50.322;18.650;2022-12-07T23:58:55;98566.53;;;3.17
